sensor_id;sensor_type;location;lat;lon;timestamp;temperature;humidity
68128;SHT30;54931;52.098;21.006;2024-03-07T00:01:26;3.75;65.61
68128;SHT30;54931;52.098;21.006;2024-03-07T00:03:54;3.73;66.04
68128;SHT30;54931;52.098;21.006;2024-03-07T00:06:22;3.70;66.46
68128;SHT30;54931;52.098;21.006;2024-03-07T00:08:50;3.67;66.83
68128;SHT30;54931;52.098;21.006;2024-03-07T00:11:19;3.64;67.07
68128;SHT30;54931;52.098;21.006;2024-03-07T00:13:47;3.62;67.21
68128;SHT30;54931;52.098;21.006;2024-03-07T00:16:14;3.59;67.49
68128;SHT30;54931;52.098;21.006;2024-03-07T00:18:42;3.58;67.57
68128;SHT30;54931;52.098;21.006;2024-03-07T00:21:10;3.56;67.57
68128;SHT30;54931;52.098;21.006;2024-03-07T00:23:39;3.54;67.69
68128;SHT30;54931;52.098;21.006;2024-03-07T00:26:07;3.54;67.79
68128;SHT30;54931;52.098;21.006;2024-03-07T00:28:36;3.52;67.79
68128;SHT30;54931;52.098;21.006;2024-03-07T00:31:07;3.48;67.85
68128;SHT30;54931;52.098;21.006;2024-03-07T00:33:35;3.46;67.76
68128;SHT30;54931;52.098;21.006;2024-03-07T00:36:04;3.44;67.47
68128;SHT30;54931;52.098;21.006;2024-03-07T00:38:33;3.40;67.37
68128;SHT30;54931;52.098;21.006;2024-03-07T00:41:02;3.39;67.37
68128;SHT30;54931;52.098;21.006;2024-03-07T00:43:31;3.35;67.65
68128;SHT30;54931;52.098;21.006;2024-03-07T00:45:59;3.33;67.87
68128;SHT30;54931;52.098;21.006;2024-03-07T00:48:27;3.31;67.83
68128;SHT30;54931;52.098;21.006;2024-03-07T00:50:58;3.27;68.00
68128;SHT30;54931;52.098;21.006;2024-03-07T00:53:26;3.26;67.94
68128;SHT30;54931;52.098;21.006;2024-03-07T00:55:54;3.23;67.59
68128;SHT30;54931;52.098;21.006;2024-03-07T00:58:22;3.18;67.19
68128;SHT30;54931;52.098;21.006;2024-03-07T01:00:50;3.17;67.18
68128;SHT30;54931;52.098;21.006;2024-03-07T01:03:18;3.14;67.10
68128;SHT30;54931;52.098;21.006;2024-03-07T01:05:46;3.11;66.76
68128;SHT30;54931;52.098;21.006;2024-03-07T01:08:14;3.08;66.51
68128;SHT30;54931;52.098;21.006;2024-03-07T01:10:43;3.04;66.64
68128;SHT30;54931;52.098;21.006;2024-03-07T01:13:11;3.04;66.81
68128;SHT30;54931;52.098;21.006;2024-03-07T01:15:46;3.02;66.59
68128;SHT30;54931;52.098;21.006;2024-03-07T01:18:16;3.00;66.60
68128;SHT30;54931;52.098;21.006;2024-03-07T01:20:44;2.97;66.06
68128;SHT30;54931;52.098;21.006;2024-03-07T01:23:13;2.95;66.14
68128;SHT30;54931;52.098;21.006;2024-03-07T01:25:41;2.94;66.08
68128;SHT30;54931;52.098;21.006;2024-03-07T01:28:09;2.90;65.61
68128;SHT30;54931;52.098;21.006;2024-03-07T01:30:40;2.88;65.56
68128;SHT30;54931;52.098;21.006;2024-03-07T01:33:08;2.86;65.58
68128;SHT30;54931;52.098;21.006;2024-03-07T01:35:36;2.84;65.67
68128;SHT30;54931;52.098;21.006;2024-03-07T01:38:04;2.81;65.66
68128;SHT30;54931;52.098;21.006;2024-03-07T01:40:32;2.79;65.68
68128;SHT30;54931;52.098;21.006;2024-03-07T01:43:01;2.78;65.70
68128;SHT30;54931;52.098;21.006;2024-03-07T01:45:30;2.75;65.87
68128;SHT30;54931;52.098;21.006;2024-03-07T01:47:59;2.71;65.80
68128;SHT30;54931;52.098;21.006;2024-03-07T01:50:27;2.64;65.56
68128;SHT30;54931;52.098;21.006;2024-03-07T01:52:56;2.61;65.53
68128;SHT30;54931;52.098;21.006;2024-03-07T01:55:26;2.59;65.90
68128;SHT30;54931;52.098;21.006;2024-03-07T01:57:56;2.58;66.11
68128;SHT30;54931;52.098;21.006;2024-03-07T02:00:27;2.55;66.26
68128;SHT30;54931;52.098;21.006;2024-03-07T02:02:55;2.53;66.34
68128;SHT30;54931;52.098;21.006;2024-03-07T02:05:24;2.51;66.41
68128;SHT30;54931;52.098;21.006;2024-03-07T02:07:52;2.50;66.52
68128;SHT30;54931;52.098;21.006;2024-03-07T02:10:21;2.49;66.73
68128;SHT30;54931;52.098;21.006;2024-03-07T02:12:49;2.47;66.78
68128;SHT30;54931;52.098;21.006;2024-03-07T02:15:17;2.45;66.95
68128;SHT30;54931;52.098;21.006;2024-03-07T02:17:45;2.44;66.98
68128;SHT30;54931;52.098;21.006;2024-03-07T02:20:14;2.43;66.96
68128;SHT30;54931;52.098;21.006;2024-03-07T02:22:43;2.41;67.15
68128;SHT30;54931;52.098;21.006;2024-03-07T02:25:11;2.40;67.30
68128;SHT30;54931;52.098;21.006;2024-03-07T02:27:43;2.40;67.44
68128;SHT30;54931;52.098;21.006;2024-03-07T02:30:13;2.39;67.50
68128;SHT30;54931;52.098;21.006;2024-03-07T02:32:42;2.37;67.45
68128;SHT30;54931;52.098;21.006;2024-03-07T02:35:14;2.37;67.42
68128;SHT30;54931;52.098;21.006;2024-03-07T02:37:43;2.36;67.55
68128;SHT30;54931;52.098;21.006;2024-03-07T02:40:13;2.35;67.59
68128;SHT30;54931;52.098;21.006;2024-03-07T02:42:43;2.34;67.46
68128;SHT30;54931;52.098;21.006;2024-03-07T02:45:11;2.31;67.28
68128;SHT30;54931;52.098;21.006;2024-03-07T02:47:41;2.30;67.25
68128;SHT30;54931;52.098;21.006;2024-03-07T02:50:11;2.29;67.43
68128;SHT30;54931;52.098;21.006;2024-03-07T02:52:39;2.29;67.56
68128;SHT30;54931;52.098;21.006;2024-03-07T02:55:08;2.27;67.44
68128;SHT30;54931;52.098;21.006;2024-03-07T02:57:38;2.26;67.58
68128;SHT30;54931;52.098;21.006;2024-03-07T03:00:06;2.23;67.69
68128;SHT30;54931;52.098;21.006;2024-03-07T03:02:48;2.23;67.69
68128;SHT30;54931;52.098;21.006;2024-03-07T03:05:16;2.22;67.60
68128;SHT30;54931;52.098;21.006;2024-03-07T03:07:45;2.18;67.41
68128;SHT30;54931;52.098;21.006;2024-03-07T03:10:23;2.16;67.15
68128;SHT30;54931;52.098;21.006;2024-03-07T03:13:00;2.14;67.30
68128;SHT30;54931;52.098;21.006;2024-03-07T03:15:28;2.12;67.51
68128;SHT30;54931;52.098;21.006;2024-03-07T03:17:57;2.09;67.46
68128;SHT30;54931;52.098;21.006;2024-03-07T03:20:28;2.09;67.46
68128;SHT30;54931;52.098;21.006;2024-03-07T03:23:06;2.06;67.52
68128;SHT30;54931;52.098;21.006;2024-03-07T03:25:38;2.05;67.49
68128;SHT30;54931;52.098;21.006;2024-03-07T03:28:08;2.01;67.08
68128;SHT30;54931;52.098;21.006;2024-03-07T03:30:38;2.01;67.09
68128;SHT30;54931;52.098;21.006;2024-03-07T03:33:07;2.00;67.02
68128;SHT30;54931;52.098;21.006;2024-03-07T03:35:39;2.00;67.24
68128;SHT30;54931;52.098;21.006;2024-03-07T03:38:08;2.00;67.34
68128;SHT30;54931;52.098;21.006;2024-03-07T03:40:39;1.99;67.41
68128;SHT30;54931;52.098;21.006;2024-03-07T03:43:07;1.99;67.49
68128;SHT30;54931;52.098;21.006;2024-03-07T03:45:35;1.97;67.66
68128;SHT30;54931;52.098;21.006;2024-03-07T03:48:04;1.94;67.54
68128;SHT30;54931;52.098;21.006;2024-03-07T03:50:33;1.90;67.45
68128;SHT30;54931;52.098;21.006;2024-03-07T03:53:01;1.87;67.57
68128;SHT30;54931;52.098;21.006;2024-03-07T03:55:29;1.85;67.64
68128;SHT30;54931;52.098;21.006;2024-03-07T03:57:59;1.83;67.78
68128;SHT30;54931;52.098;21.006;2024-03-07T04:00:28;1.81;67.89
68128;SHT30;54931;52.098;21.006;2024-03-07T04:03:15;1.76;67.79
68128;SHT30;54931;52.098;21.006;2024-03-07T04:05:43;1.70;67.94
68128;SHT30;54931;52.098;21.006;2024-03-07T04:08:11;1.59;68.13
68128;SHT30;54931;52.098;21.006;2024-03-07T04:10:39;1.49;68.31
68128;SHT30;54931;52.098;21.006;2024-03-07T04:13:07;1.38;68.56
68128;SHT30;54931;52.098;21.006;2024-03-07T04:15:36;1.28;68.70
68128;SHT30;54931;52.098;21.006;2024-03-07T04:18:03;1.16;69.00
68128;SHT30;54931;52.098;21.006;2024-03-07T04:20:32;1.03;69.21
68128;SHT30;54931;52.098;21.006;2024-03-07T04:23:01;0.92;69.48
68128;SHT30;54931;52.098;21.006;2024-03-07T04:25:31;0.80;69.76
68128;SHT30;54931;52.098;21.006;2024-03-07T04:28:01;0.68;70.01
68128;SHT30;54931;52.098;21.006;2024-03-07T04:30:30;0.56;70.26
68128;SHT30;54931;52.098;21.006;2024-03-07T04:32:58;0.46;70.68
68128;SHT30;54931;52.098;21.006;2024-03-07T04:35:26;0.34;70.91
68128;SHT30;54931;52.098;21.006;2024-03-07T04:37:54;0.21;71.47
68128;SHT30;54931;52.098;21.006;2024-03-07T04:40:22;0.11;71.92
68128;SHT30;54931;52.098;21.006;2024-03-07T04:42:50;-0.00;72.63
68128;SHT30;54931;52.098;21.006;2024-03-07T04:45:19;-0.12;72.91
68128;SHT30;54931;52.098;21.006;2024-03-07T04:47:48;-0.23;73.13
68128;SHT30;54931;52.098;21.006;2024-03-07T04:50:17;-0.35;73.43
68128;SHT30;54931;52.098;21.006;2024-03-07T04:52:45;-0.45;73.77
68128;SHT30;54931;52.098;21.006;2024-03-07T04:55:14;-0.56;74.20
68128;SHT30;54931;52.098;21.006;2024-03-07T04:57:42;-0.65;74.52
68128;SHT30;54931;52.098;21.006;2024-03-07T05:00:11;-0.74;74.64
68128;SHT30;54931;52.098;21.006;2024-03-07T05:02:42;-0.83;74.79
68128;SHT30;54931;52.098;21.006;2024-03-07T05:05:11;-0.91;75.04
68128;SHT30;54931;52.098;21.006;2024-03-07T05:07:40;-0.97;75.39
68128;SHT30;54931;52.098;21.006;2024-03-07T05:10:07;-1.06;75.85
68128;SHT30;54931;52.098;21.006;2024-03-07T05:12:36;-1.10;76.08
68128;SHT30;54931;52.098;21.006;2024-03-07T05:15:05;-1.15;76.16
68128;SHT30;54931;52.098;21.006;2024-03-07T05:17:33;-1.20;76.31
68128;SHT30;54931;52.098;21.006;2024-03-07T05:20:03;-1.25;76.51
68128;SHT30;54931;52.098;21.006;2024-03-07T05:22:38;-1.27;76.73
68128;SHT30;54931;52.098;21.006;2024-03-07T05:25:18;-1.32;76.76
68128;SHT30;54931;52.098;21.006;2024-03-07T05:27:47;-1.34;76.85
68128;SHT30;54931;52.098;21.006;2024-03-07T05:30:18;-1.37;76.97
68128;SHT30;54931;52.098;21.006;2024-03-07T05:32:46;-1.38;77.17
68128;SHT30;54931;52.098;21.006;2024-03-07T05:35:15;-1.37;77.38
68128;SHT30;54931;52.098;21.006;2024-03-07T05:37:43;-1.37;77.64
68128;SHT30;54931;52.098;21.006;2024-03-07T05:40:14;-1.37;77.58
68128;SHT30;54931;52.098;21.006;2024-03-07T05:42:42;-1.35;77.69
68128;SHT30;54931;52.098;21.006;2024-03-07T05:45:11;-1.34;77.67
68128;SHT30;54931;52.098;21.006;2024-03-07T05:47:39;-1.32;77.70
68128;SHT30;54931;52.098;21.006;2024-03-07T05:50:07;-1.31;77.72
68128;SHT30;54931;52.098;21.006;2024-03-07T05:52:36;-1.28;77.83
68128;SHT30;54931;52.098;21.006;2024-03-07T05:55:04;-1.25;77.87
68128;SHT30;54931;52.098;21.006;2024-03-07T05:57:34;-1.21;77.88
68128;SHT30;54931;52.098;21.006;2024-03-07T06:00:02;-1.16;77.87
68128;SHT30;54931;52.098;21.006;2024-03-07T06:02:37;-1.10;78.04
68128;SHT30;54931;52.098;21.006;2024-03-07T06:05:06;-1.04;77.98
68128;SHT30;54931;52.098;21.006;2024-03-07T06:07:42;-0.97;77.98
68128;SHT30;54931;52.098;21.006;2024-03-07T06:10:10;-0.89;77.92
68128;SHT30;54931;52.098;21.006;2024-03-07T06:12:39;-0.79;77.94
68128;SHT30;54931;52.098;21.006;2024-03-07T06:15:12;-0.70;77.78
68128;SHT30;54931;52.098;21.006;2024-03-07T06:17:40;-0.49;77.71
68128;SHT30;54931;52.098;21.006;2024-03-07T06:20:09;-0.06;77.45
68128;SHT30;54931;52.098;21.006;2024-03-07T06:22:50;0.41;76.62
68128;SHT30;54931;52.098;21.006;2024-03-07T06:25:19;0.87;75.78
68128;SHT30;54931;52.098;21.006;2024-03-07T06:28:06;1.31;74.71
68128;SHT30;54931;52.098;21.006;2024-03-07T06:30:42;1.63;73.51
68128;SHT30;54931;52.098;21.006;2024-03-07T06:33:14;1.92;72.41
68128;SHT30;54931;52.098;21.006;2024-03-07T06:35:43;2.22;72.00
68128;SHT30;54931;52.098;21.006;2024-03-07T06:38:11;2.45;70.95
68128;SHT30;54931;52.098;21.006;2024-03-07T06:40:39;2.75;70.41
68128;SHT30;54931;52.098;21.006;2024-03-07T06:43:09;3.00;68.80
68128;SHT30;54931;52.098;21.006;2024-03-07T06:45:38;3.16;68.41
68128;SHT30;54931;52.098;21.006;2024-03-07T06:48:08;3.42;67.99
68128;SHT30;54931;52.098;21.006;2024-03-07T06:50:37;3.74;66.86
68128;SHT30;54931;52.098;21.006;2024-03-07T06:53:05;3.86;64.92
68128;SHT30;54931;52.098;21.006;2024-03-07T06:55:34;3.88;64.34
68128;SHT30;54931;52.098;21.006;2024-03-07T06:58:02;3.94;64.31
68128;SHT30;54931;52.098;21.006;2024-03-07T07:00:33;4.22;63.63
68128;SHT30;54931;52.098;21.006;2024-03-07T07:03:04;4.34;62.96
68128;SHT30;54931;52.098;21.006;2024-03-07T07:05:34;4.58;62.65
68128;SHT30;54931;52.098;21.006;2024-03-07T07:08:02;4.78;61.75
68128;SHT30;54931;52.098;21.006;2024-03-07T07:10:30;4.99;61.40
68128;SHT30;54931;52.098;21.006;2024-03-07T07:12:59;5.22;60.30
68128;SHT30;54931;52.098;21.006;2024-03-07T07:15:27;5.06;59.49
68128;SHT30;54931;52.098;21.006;2024-03-07T07:17:55;5.31;59.97
68128;SHT30;54931;52.098;21.006;2024-03-07T07:20:23;5.62;59.31
68128;SHT30;54931;52.098;21.006;2024-03-07T07:22:51;5.92;58.78
68128;SHT30;54931;52.098;21.006;2024-03-07T07:25:20;6.24;57.69
68128;SHT30;54931;52.098;21.006;2024-03-07T07:27:49;6.35;57.65
68128;SHT30;54931;52.098;21.006;2024-03-07T07:30:19;6.82;57.33
68128;SHT30;54931;52.098;21.006;2024-03-07T07:32:51;6.81;53.87
68128;SHT30;54931;52.098;21.006;2024-03-07T07:35:19;6.54;53.52
68128;SHT30;54931;52.098;21.006;2024-03-07T07:37:49;6.60;54.13
68128;SHT30;54931;52.098;21.006;2024-03-07T07:40:23;6.47;53.02
68128;SHT30;54931;52.098;21.006;2024-03-07T07:42:53;6.60;53.69
68128;SHT30;54931;52.098;21.006;2024-03-07T07:45:22;6.71;52.34
68128;SHT30;54931;52.098;21.006;2024-03-07T07:47:51;6.55;52.08
68128;SHT30;54931;52.098;21.006;2024-03-07T07:50:23;6.58;51.93
68128;SHT30;54931;52.098;21.006;2024-03-07T07:52:52;6.51;52.49
68128;SHT30;54931;52.098;21.006;2024-03-07T07:55:22;6.42;53.54
68128;SHT30;54931;52.098;21.006;2024-03-07T07:57:52;6.38;53.74
68128;SHT30;54931;52.098;21.006;2024-03-07T08:00:23;6.22;53.64
68128;SHT30;54931;52.098;21.006;2024-03-07T08:02:53;6.22;53.85
68128;SHT30;54931;52.098;21.006;2024-03-07T08:05:23;6.38;53.96
68128;SHT30;54931;52.098;21.006;2024-03-07T08:07:56;6.55;53.69
68128;SHT30;54931;52.098;21.006;2024-03-07T08:10:26;6.73;53.55
68128;SHT30;54931;52.098;21.006;2024-03-07T08:12:59;6.93;53.11
68128;SHT30;54931;52.098;21.006;2024-03-07T08:15:29;6.78;51.93
68128;SHT30;54931;52.098;21.006;2024-03-07T08:17:58;6.48;52.49
68128;SHT30;54931;52.098;21.006;2024-03-07T08:20:26;6.48;52.77
68128;SHT30;54931;52.098;21.006;2024-03-07T08:22:56;6.56;53.42
68128;SHT30;54931;52.098;21.006;2024-03-07T08:25:24;6.79;52.46
68128;SHT30;54931;52.098;21.006;2024-03-07T08:27:54;7.01;52.27
68128;SHT30;54931;52.098;21.006;2024-03-07T08:30:23;6.92;50.58
68128;SHT30;54931;52.098;21.006;2024-03-07T08:32:55;6.77;50.83
68128;SHT30;54931;52.098;21.006;2024-03-07T08:35:24;6.67;50.55
68128;SHT30;54931;52.098;21.006;2024-03-07T08:37:53;6.61;51.36
68128;SHT30;54931;52.098;21.006;2024-03-07T08:40:22;6.64;51.08
68128;SHT30;54931;52.098;21.006;2024-03-07T08:42:53;6.64;50.87
68128;SHT30;54931;52.098;21.006;2024-03-07T08:45:21;6.68;50.96
68128;SHT30;54931;52.098;21.006;2024-03-07T08:47:50;6.88;51.14
68128;SHT30;54931;52.098;21.006;2024-03-07T08:50:22;6.93;50.54
68128;SHT30;54931;52.098;21.006;2024-03-07T08:52:51;6.96;50.56
68128;SHT30;54931;52.098;21.006;2024-03-07T08:55:23;7.12;50.79
68128;SHT30;54931;52.098;21.006;2024-03-07T08:57:52;7.27;50.39
68128;SHT30;54931;52.098;21.006;2024-03-07T09:00:20;7.47;49.85
68128;SHT30;54931;52.098;21.006;2024-03-07T09:02:51;7.45;47.54
68128;SHT30;54931;52.098;21.006;2024-03-07T09:05:27;7.16;47.86
68128;SHT30;54931;52.098;21.006;2024-03-07T09:07:55;7.10;47.68
68128;SHT30;54931;52.098;21.006;2024-03-07T09:10:23;7.13;48.36
68128;SHT30;54931;52.098;21.006;2024-03-07T09:12:57;7.33;48.01
68128;SHT30;54931;52.098;21.006;2024-03-07T09:15:25;7.41;48.15
68128;SHT30;54931;52.098;21.006;2024-03-07T09:17:54;7.55;47.67
68128;SHT30;54931;52.098;21.006;2024-03-07T09:20:22;7.70;47.57
68128;SHT30;54931;52.098;21.006;2024-03-07T09:22:51;7.83;46.73
68128;SHT30;54931;52.098;21.006;2024-03-07T09:25:22;7.98;46.34
68128;SHT30;54931;52.098;21.006;2024-03-07T09:27:51;8.01;45.27
68128;SHT30;54931;52.098;21.006;2024-03-07T09:30:19;8.06;45.30
68128;SHT30;54931;52.098;21.006;2024-03-07T09:32:51;8.06;44.43
68128;SHT30;54931;52.098;21.006;2024-03-07T09:35:20;7.89;44.60
68128;SHT30;54931;52.098;21.006;2024-03-07T09:37:48;7.88;44.93
68128;SHT30;54931;52.098;21.006;2024-03-07T09:40:17;7.98;44.76
68128;SHT30;54931;52.098;21.006;2024-03-07T09:42:46;8.04;44.74
68128;SHT30;54931;52.098;21.006;2024-03-07T09:45:15;8.30;45.32
68128;SHT30;54931;52.098;21.006;2024-03-07T09:47:49;8.33;43.05
68128;SHT30;54931;52.098;21.006;2024-03-07T09:50:19;8.02;42.75
68128;SHT30;54931;52.098;21.006;2024-03-07T09:52:54;8.24;43.78
68128;SHT30;54931;52.098;21.006;2024-03-07T09:55:22;8.41;42.74
68128;SHT30;54931;52.098;21.006;2024-03-07T09:57:54;8.51;42.31
68128;SHT30;54931;52.098;21.006;2024-03-07T10:00:23;8.63;42.10
68128;SHT30;54931;52.098;21.006;2024-03-07T10:02:56;8.71;42.26
68128;SHT30;54931;52.098;21.006;2024-03-07T10:05:28;9.05;43.77
68128;SHT30;54931;52.098;21.006;2024-03-07T10:07:59;9.38;41.82
68128;SHT30;54931;52.098;21.006;2024-03-07T10:10:28;9.30;40.91
68128;SHT30;54931;52.098;21.006;2024-03-07T10:12:57;9.07;41.47
68128;SHT30;54931;52.098;21.006;2024-03-07T10:15:29;9.09;41.80
68128;SHT30;54931;52.098;21.006;2024-03-07T10:17:59;9.10;41.17
68128;SHT30;54931;52.098;21.006;2024-03-07T10:20:28;9.12;40.92
68128;SHT30;54931;52.098;21.006;2024-03-07T10:22:55;9.00;39.94
68128;SHT30;54931;52.098;21.006;2024-03-07T10:25:28;8.79;40.03
68128;SHT30;54931;52.098;21.006;2024-03-07T10:27:56;8.76;40.34
68128;SHT30;54931;52.098;21.006;2024-03-07T10:30:24;8.81;40.55
68128;SHT30;54931;52.098;21.006;2024-03-07T10:32:54;8.84;40.03
68128;SHT30;54931;52.098;21.006;2024-03-07T10:35:26;8.69;40.21
68128;SHT30;54931;52.098;21.006;2024-03-07T10:37:54;8.71;40.74
68128;SHT30;54931;52.098;21.006;2024-03-07T10:40:23;8.61;40.83
68128;SHT30;54931;52.098;21.006;2024-03-07T10:42:56;8.47;41.63
68128;SHT30;54931;52.098;21.006;2024-03-07T10:45:25;8.59;42.30
68128;SHT30;54931;52.098;21.006;2024-03-07T10:47:58;8.64;41.77
68128;SHT30;54931;52.098;21.006;2024-03-07T10:50:41;8.62;41.46
68128;SHT30;54931;52.098;21.006;2024-03-07T10:56:11;8.34;41.01
68128;SHT30;54931;52.098;21.006;2024-03-07T11:01:23;8.30;41.89
68128;SHT30;54931;52.098;21.006;2024-03-07T11:03:53;8.44;41.28
68128;SHT30;54931;52.098;21.006;2024-03-07T11:06:25;8.52;40.49
68128;SHT30;54931;52.098;21.006;2024-03-07T11:08:53;8.53;40.80
68128;SHT30;54931;52.098;21.006;2024-03-07T11:11:22;8.58;41.37
68128;SHT30;54931;52.098;21.006;2024-03-07T11:13:52;8.48;41.84
68128;SHT30;54931;52.098;21.006;2024-03-07T11:16:22;8.42;41.63
68128;SHT30;54931;52.098;21.006;2024-03-07T11:21:50;8.52;41.87
68128;SHT30;54931;52.098;21.006;2024-03-07T11:26:56;8.56;41.64
68128;SHT30;54931;52.098;21.006;2024-03-07T11:32:21;8.21;41.66
68128;SHT30;54931;52.098;21.006;2024-03-07T11:34:50;8.15;42.25
68128;SHT30;54931;52.098;21.006;2024-03-07T11:42:53;7.99;42.45
68128;SHT30;54931;52.098;21.006;2024-03-07T11:45:26;7.95;42.19
68128;SHT30;54931;52.098;21.006;2024-03-07T11:47:58;7.84;42.62
68128;SHT30;54931;52.098;21.006;2024-03-07T11:50:40;7.85;43.14
68128;SHT30;54931;52.098;21.006;2024-03-07T11:53:09;7.81;42.27
68128;SHT30;54931;52.098;21.006;2024-03-07T11:55:38;7.86;43.06
68128;SHT30;54931;52.098;21.006;2024-03-07T11:58:14;8.02;42.49
68128;SHT30;54931;52.098;21.006;2024-03-07T12:00:44;8.12;42.09
68128;SHT30;54931;52.098;21.006;2024-03-07T12:03:13;8.17;42.16
68128;SHT30;54931;52.098;21.006;2024-03-07T12:05:44;8.27;42.38
68128;SHT30;54931;52.098;21.006;2024-03-07T12:08:12;8.41;42.58
68128;SHT30;54931;52.098;21.006;2024-03-07T12:10:42;8.50;41.66
68128;SHT30;54931;52.098;21.006;2024-03-07T12:13:12;8.51;42.23
68128;SHT30;54931;52.098;21.006;2024-03-07T12:15:42;8.53;42.24
68128;SHT30;54931;52.098;21.006;2024-03-07T12:18:11;8.55;42.90
68128;SHT30;54931;52.098;21.006;2024-03-07T12:20:44;8.65;42.57
68128;SHT30;54931;52.098;21.006;2024-03-07T12:23:24;8.75;42.54
68128;SHT30;54931;52.098;21.006;2024-03-07T12:26:02;8.77;42.08
68128;SHT30;54931;52.098;21.006;2024-03-07T12:28:31;8.71;42.11
68128;SHT30;54931;52.098;21.006;2024-03-07T12:31:02;8.69;42.21
68128;SHT30;54931;52.098;21.006;2024-03-07T12:33:32;8.67;41.81
68128;SHT30;54931;52.098;21.006;2024-03-07T12:36:06;8.64;42.46
68128;SHT30;54931;52.098;21.006;2024-03-07T12:38:36;8.63;42.23
68128;SHT30;54931;52.098;21.006;2024-03-07T12:41:06;8.55;42.08
68128;SHT30;54931;52.098;21.006;2024-03-07T12:43:35;8.47;42.17
68128;SHT30;54931;52.098;21.006;2024-03-07T12:46:04;8.35;42.61
68128;SHT30;54931;52.098;21.006;2024-03-07T12:48:32;8.37;42.90
68128;SHT30;54931;52.098;21.006;2024-03-07T12:51:01;8.51;42.90
68128;SHT30;54931;52.098;21.006;2024-03-07T12:53:29;8.59;42.02
68128;SHT30;54931;52.098;21.006;2024-03-07T12:55:59;8.61;42.27
68128;SHT30;54931;52.098;21.006;2024-03-07T12:58:27;8.68;42.10
68128;SHT30;54931;52.098;21.006;2024-03-07T13:00:56;8.76;42.00
68128;SHT30;54931;52.098;21.006;2024-03-07T13:03:25;8.82;42.06
68128;SHT30;54931;52.098;21.006;2024-03-07T13:05:57;8.79;40.94
68128;SHT30;54931;52.098;21.006;2024-03-07T13:08:28;8.58;40.84
68128;SHT30;54931;52.098;21.006;2024-03-07T13:10:59;8.46;41.09
68128;SHT30;54931;52.098;21.006;2024-03-07T13:13:27;8.42;42.01
68128;SHT30;54931;52.098;21.006;2024-03-07T13:15:55;8.43;42.17
68128;SHT30;54931;52.098;21.006;2024-03-07T13:18:23;8.38;41.49
68128;SHT30;54931;52.098;21.006;2024-03-07T13:20:51;8.42;41.52
68128;SHT30;54931;52.098;21.006;2024-03-07T13:23:19;8.54;41.49
68128;SHT30;54931;52.098;21.006;2024-03-07T13:25:47;8.57;41.80
68128;SHT30;54931;52.098;21.006;2024-03-07T13:28:15;8.66;41.55
68128;SHT30;54931;52.098;21.006;2024-03-07T13:30:44;8.68;41.25
68128;SHT30;54931;52.098;21.006;2024-03-07T13:33:15;8.78;40.79
68128;SHT30;54931;52.098;21.006;2024-03-07T13:35:44;8.89;40.87
68128;SHT30;54931;52.098;21.006;2024-03-07T13:38:11;9.06;40.01
68128;SHT30;54931;52.098;21.006;2024-03-07T13:40:40;9.07;40.07
68128;SHT30;54931;52.098;21.006;2024-03-07T13:43:08;9.06;40.45
68128;SHT30;54931;52.098;21.006;2024-03-07T13:45:36;9.13;40.91
68128;SHT30;54931;52.098;21.006;2024-03-07T13:48:09;9.23;40.65
68128;SHT30;54931;52.098;21.006;2024-03-07T13:50:40;9.20;40.65
68128;SHT30;54931;52.098;21.006;2024-03-07T13:53:09;9.18;40.91
68128;SHT30;54931;52.098;21.006;2024-03-07T14:32:50;9.12;40.22
68128;SHT30;54931;52.098;21.006;2024-03-07T14:35:28;8.92;40.33
68128;SHT30;54931;52.098;21.006;2024-03-07T14:41:08;8.81;40.64
68128;SHT30;54931;52.098;21.006;2024-03-07T14:43:40;8.44;40.60
68128;SHT30;54931;52.098;21.006;2024-03-07T14:46:10;8.12;41.29
68128;SHT30;54931;52.098;21.006;2024-03-07T14:48:40;7.91;42.15
68128;SHT30;54931;52.098;21.006;2024-03-07T14:51:08;7.76;42.77
68128;SHT30;54931;52.098;21.006;2024-03-07T14:53:40;7.62;43.42
68128;SHT30;54931;52.098;21.006;2024-03-07T14:56:09;7.42;43.58
68128;SHT30;54931;52.098;21.006;2024-03-07T14:58:38;7.26;44.08
68128;SHT30;54931;52.098;21.006;2024-03-07T15:01:07;7.12;44.12
68128;SHT30;54931;52.098;21.006;2024-03-07T15:03:35;7.05;44.51
68128;SHT30;54931;52.098;21.006;2024-03-07T15:06:05;7.18;44.45
68128;SHT30;54931;52.098;21.006;2024-03-07T15:08:37;7.26;43.77
68128;SHT30;54931;52.098;21.006;2024-03-07T15:13:44;7.06;44.64
68128;SHT30;54931;52.098;21.006;2024-03-07T15:16:13;7.07;45.20
68128;SHT30;54931;52.098;21.006;2024-03-07T15:18:42;7.04;45.60
68128;SHT30;54931;52.098;21.006;2024-03-07T15:21:11;7.21;45.89
68128;SHT30;54931;52.098;21.006;2024-03-07T15:23:43;7.32;45.59
68128;SHT30;54931;52.098;21.006;2024-03-07T15:26:12;7.42;45.47
68128;SHT30;54931;52.098;21.006;2024-03-07T15:28:43;7.49;45.66
68128;SHT30;54931;52.098;21.006;2024-03-07T15:31:11;7.39;45.63
68128;SHT30;54931;52.098;21.006;2024-03-07T15:33:42;7.26;45.73
68128;SHT30;54931;52.098;21.006;2024-03-07T15:36:11;7.23;45.06
68128;SHT30;54931;52.098;21.006;2024-03-07T15:38:40;7.21;45.54
68128;SHT30;54931;52.098;21.006;2024-03-07T15:41:09;7.17;45.62
68128;SHT30;54931;52.098;21.006;2024-03-07T15:43:39;7.01;45.88
68128;SHT30;54931;52.098;21.006;2024-03-07T15:46:11;6.88;46.51
68128;SHT30;54931;52.098;21.006;2024-03-07T15:48:40;6.85;47.07
68128;SHT30;54931;52.098;21.006;2024-03-07T15:51:08;6.77;47.34
68128;SHT30;54931;52.098;21.006;2024-03-07T15:53:39;6.66;47.67
68128;SHT30;54931;52.098;21.006;2024-03-07T15:56:08;6.54;48.11
68128;SHT30;54931;52.098;21.006;2024-03-07T15:58:37;6.42;48.37
68128;SHT30;54931;52.098;21.006;2024-03-07T16:01:05;6.21;48.81
68128;SHT30;54931;52.098;21.006;2024-03-07T16:03:34;6.01;49.27
68128;SHT30;54931;52.098;21.006;2024-03-07T16:06:02;5.84;49.71
68128;SHT30;54931;52.098;21.006;2024-03-07T16:08:33;5.66;50.12
68128;SHT30;54931;52.098;21.006;2024-03-07T16:11:01;5.51;50.49
68128;SHT30;54931;52.098;21.006;2024-03-07T16:13:30;5.37;50.88
68128;SHT30;54931;52.098;21.006;2024-03-07T16:15:58;5.23;51.30
68128;SHT30;54931;52.098;21.006;2024-03-07T16:18:27;5.09;51.71
68128;SHT30;54931;52.098;21.006;2024-03-07T16:20:55;4.96;52.05
68128;SHT30;54931;52.098;21.006;2024-03-07T16:23:25;4.82;52.56
68128;SHT30;54931;52.098;21.006;2024-03-07T16:25:52;4.70;52.92
68128;SHT30;54931;52.098;21.006;2024-03-07T16:28:21;4.58;53.18
68128;SHT30;54931;52.098;21.006;2024-03-07T16:30:54;4.45;53.68
68128;SHT30;54931;52.098;21.006;2024-03-07T16:33:23;4.34;54.06
68128;SHT30;54931;52.098;21.006;2024-03-07T16:35:55;4.24;54.35
68128;SHT30;54931;52.098;21.006;2024-03-07T16:38:25;4.12;54.86
68128;SHT30;54931;52.098;21.006;2024-03-07T16:40:54;4.03;55.28
68128;SHT30;54931;52.098;21.006;2024-03-07T16:43:22;3.93;55.54
68128;SHT30;54931;52.098;21.006;2024-03-07T16:45:52;3.83;55.89
68128;SHT30;54931;52.098;21.006;2024-03-07T16:48:20;3.73;56.24